sensor_id;sensor_type;location;lat;lon;timestamp;P1;durP1;ratioP1;P2;durP2;ratioP2
56419;SDS011;42323;52.170;7.538;2024-02-21T00:00:02;608.05;;;326.27;;
56419;SDS011;42323;52.170;7.538;2024-02-21T00:02:29;604.47;;;325.13;;
56419;SDS011;42323;52.170;7.538;2024-02-21T00:04:55;603.90;;;323.75;;
56419;SDS011;42323;52.170;7.538;2024-02-21T00:07:21;631.85;;;326.92;;
56419;SDS011;42323;52.170;7.538;2024-02-21T00:09:49;603.30;;;325.55;;
56419;SDS011;42323;52.170;7.538;2024-02-21T00:12:15;599.58;;;320.02;;
56419;SDS011;42323;52.170;7.538;2024-02-21T00:14:41;623.03;;;321.15;;
56419;SDS011;42323;52.170;7.538;2024-02-21T00:17:08;596.20;;;316.67;;
56419;SDS011;42323;52.170;7.538;2024-02-21T00:19:34;593.78;;;317.00;;
56419;SDS011;42323;52.170;7.538;2024-02-21T00:22:01;627.95;;;322.65;;
56419;SDS011;42323;52.170;7.538;2024-02-21T00:24:28;601.00;;;321.38;;
56419;SDS011;42323;52.170;7.538;2024-02-21T00:26:54;607.63;;;325.38;;
56419;SDS011;42323;52.170;7.538;2024-02-21T00:29:20;604.20;;;324.95;;
56419;SDS011;42323;52.170;7.538;2024-02-21T00:31:48;600.58;;;323.40;;
56419;SDS011;42323;52.170;7.538;2024-02-21T00:34:15;606.03;;;325.08;;
56419;SDS011;42323;52.170;7.538;2024-02-21T00:36:42;609.38;;;326.35;;
56419;SDS011;42323;52.170;7.538;2024-02-21T00:39:08;642.95;;;330.52;;
56419;SDS011;42323;52.170;7.538;2024-02-21T00:41:35;612.17;;;325.98;;
56419;SDS011;42323;52.170;7.538;2024-02-21T00:44:01;601.75;;;324.38;;
56419;SDS011;42323;52.170;7.538;2024-02-21T00:46:28;608.75;;;327.60;;
56419;SDS011;42323;52.170;7.538;2024-02-21T00:48:55;602.92;;;324.08;;
56419;SDS011;42323;52.170;7.538;2024-02-21T00:51:21;609.00;;;326.67;;
56419;SDS011;42323;52.170;7.538;2024-02-21T00:53:47;638.15;;;328.00;;
56419;SDS011;42323;52.170;7.538;2024-02-21T00:56:14;606.97;;;324.23;;
56419;SDS011;42323;52.170;7.538;2024-02-21T00:58:40;589.90;;;315.13;;
56419;SDS011;42323;52.170;7.538;2024-02-21T01:01:07;608.83;;;314.33;;
56419;SDS011;42323;52.170;7.538;2024-02-21T01:03:33;616.03;;;315.27;;
56419;SDS011;42323;52.170;7.538;2024-02-21T01:06:00;631.30;;;324.80;;
56419;SDS011;42323;52.170;7.538;2024-02-21T01:08:26;599.38;;;318.58;;
56419;SDS011;42323;52.170;7.538;2024-02-21T01:10:52;599.95;;;319.88;;
56419;SDS011;42323;52.170;7.538;2024-02-21T01:13:19;631.35;;;323.92;;
56419;SDS011;42323;52.170;7.538;2024-02-21T01:15:46;605.08;;;323.88;;
56419;SDS011;42323;52.170;7.538;2024-02-21T01:18:12;605.63;;;322.70;;
56419;SDS011;42323;52.170;7.538;2024-02-21T01:20:38;632.22;;;323.92;;
56419;SDS011;42323;52.170;7.538;2024-02-21T01:23:05;603.05;;;322.15;;
56419;SDS011;42323;52.170;7.538;2024-02-21T01:25:31;606.15;;;323.65;;
56419;SDS011;42323;52.170;7.538;2024-02-21T01:27:58;633.40;;;325.38;;
56419;SDS011;42323;52.170;7.538;2024-02-21T01:30:24;631.00;;;323.33;;
56419;SDS011;42323;52.170;7.538;2024-02-21T01:32:51;606.60;;;325.80;;
56419;SDS011;42323;52.170;7.538;2024-02-21T01:35:17;605.90;;;324.38;;
56419;SDS011;42323;52.170;7.538;2024-02-21T01:37:44;606.38;;;323.13;;
56419;SDS011;42323;52.170;7.538;2024-02-21T01:40:11;604.95;;;322.42;;
56419;SDS011;42323;52.170;7.538;2024-02-21T01:42:38;635.15;;;325.70;;
56419;SDS011;42323;52.170;7.538;2024-02-21T01:45:06;601.67;;;321.10;;
56419;SDS011;42323;52.170;7.538;2024-02-21T01:47:32;605.42;;;321.25;;
56419;SDS011;42323;52.170;7.538;2024-02-21T01:49:59;600.45;;;321.98;;
56419;SDS011;42323;52.170;7.538;2024-02-21T01:52:26;597.13;;;318.55;;
56419;SDS011;42323;52.170;7.538;2024-02-21T01:54:52;629.83;;;326.38;;
56419;SDS011;42323;52.170;7.538;2024-02-21T01:57:19;635.60;;;326.42;;
56419;SDS011;42323;52.170;7.538;2024-02-21T01:59:45;605.00;;;322.55;;
56419;SDS011;42323;52.170;7.538;2024-02-21T02:02:12;609.20;;;324.98;;
56419;SDS011;42323;52.170;7.538;2024-02-21T02:04:39;619.47;;;318.38;;
56419;SDS011;42323;52.170;7.538;2024-02-21T02:07:06;585.67;;;313.17;;
56419;SDS011;42323;52.170;7.538;2024-02-21T02:09:33;585.00;;;312.48;;
56419;SDS011;42323;52.170;7.538;2024-02-21T02:12:00;591.75;;;312.42;;
56419;SDS011;42323;52.170;7.538;2024-02-21T02:14:26;584.10;;;310.50;;
56419;SDS011;42323;52.170;7.538;2024-02-21T02:16:53;610.22;;;314.15;;
56419;SDS011;42323;52.170;7.538;2024-02-21T02:19:19;592.10;;;315.42;;
56419;SDS011;42323;52.170;7.538;2024-02-21T02:21:46;592.65;;;311.27;;
56419;SDS011;42323;52.170;7.538;2024-02-21T02:24:19;612.38;;;314.02;;
56419;SDS011;42323;52.170;7.538;2024-02-21T02:26:46;587.80;;;312.92;;
56419;SDS011;42323;52.170;7.538;2024-02-21T02:29:13;585.25;;;311.95;;
56419;SDS011;42323;52.170;7.538;2024-02-21T02:31:39;584.80;;;310.08;;
56419;SDS011;42323;52.170;7.538;2024-02-21T02:34:06;583.25;;;310.92;;
56419;SDS011;42323;52.170;7.538;2024-02-21T02:36:33;612.55;;;313.20;;
56419;SDS011;42323;52.170;7.538;2024-02-21T02:39:00;585.00;;;311.25;;
56419;SDS011;42323;52.170;7.538;2024-02-21T02:41:26;585.60;;;310.48;;
56419;SDS011;42323;52.170;7.538;2024-02-21T02:43:52;615.10;;;315.58;;
56419;SDS011;42323;52.170;7.538;2024-02-21T02:46:19;590.75;;;312.70;;
56419;SDS011;42323;52.170;7.538;2024-02-21T02:48:45;617.22;;;315.38;;
56419;SDS011;42323;52.170;7.538;2024-02-21T02:51:12;617.97;;;315.77;;
56419;SDS011;42323;52.170;7.538;2024-02-21T02:53:38;585.30;;;311.27;;
56419;SDS011;42323;52.170;7.538;2024-02-21T02:56:05;588.10;;;312.58;;
56419;SDS011;42323;52.170;7.538;2024-02-21T02:58:31;612.88;;;312.83;;
56419;SDS011;42323;52.170;7.538;2024-02-21T03:00:58;586.78;;;313.05;;
56419;SDS011;42323;52.170;7.538;2024-02-21T03:03:24;616.17;;;316.35;;
56419;SDS011;42323;52.170;7.538;2024-02-21T03:05:51;581.30;;;311.17;;
56419;SDS011;42323;52.170;7.538;2024-02-21T03:08:17;580.55;;;309.25;;
56419;SDS011;42323;52.170;7.538;2024-02-21T03:10:44;578.78;;;307.70;;
56419;SDS011;42323;52.170;7.538;2024-02-21T03:13:10;610.08;;;312.92;;
56419;SDS011;42323;52.170;7.538;2024-02-21T03:15:37;612.83;;;311.88;;
56419;SDS011;42323;52.170;7.538;2024-02-21T03:18:03;609.72;;;311.35;;
56419;SDS011;42323;52.170;7.538;2024-02-21T03:20:30;583.28;;;310.25;;
56419;SDS011;42323;52.170;7.538;2024-02-21T03:22:56;583.40;;;309.95;;
56419;SDS011;42323;52.170;7.538;2024-02-21T03:25:23;578.05;;;308.73;;
56419;SDS011;42323;52.170;7.538;2024-02-21T03:27:49;591.67;;;314.00;;
56419;SDS011;42323;52.170;7.538;2024-02-21T03:30:16;605.35;;;322.02;;
56419;SDS011;42323;52.170;7.538;2024-02-21T03:32:42;603.55;;;322.00;;
56419;SDS011;42323;52.170;7.538;2024-02-21T03:35:09;600.92;;;319.77;;
56419;SDS011;42323;52.170;7.538;2024-02-21T03:37:35;604.47;;;322.33;;
56419;SDS011;42323;52.170;7.538;2024-02-21T03:40:02;599.67;;;321.00;;
56419;SDS011;42323;52.170;7.538;2024-02-21T03:42:29;594.67;;;319.80;;
56419;SDS011;42323;52.170;7.538;2024-02-21T03:45:00;598.45;;;321.98;;
56419;SDS011;42323;52.170;7.538;2024-02-21T03:47:27;602.10;;;322.13;;
56419;SDS011;42323;52.170;7.538;2024-02-21T03:49:53;630.08;;;322.17;;
56419;SDS011;42323;52.170;7.538;2024-02-21T03:52:20;602.15;;;320.58;;
56419;SDS011;42323;52.170;7.538;2024-02-21T03:54:46;621.63;;;319.42;;
56419;SDS011;42323;52.170;7.538;2024-02-21T03:57:13;597.40;;;318.83;;
56419;SDS011;42323;52.170;7.538;2024-02-21T03:59:39;597.80;;;315.65;;
56419;SDS011;42323;52.170;7.538;2024-02-21T04:02:10;596.92;;;318.88;;
56419;SDS011;42323;52.170;7.538;2024-02-21T04:04:36;601.97;;;320.67;;
56419;SDS011;42323;52.170;7.538;2024-02-21T04:07:06;600.70;;;321.85;;
56419;SDS011;42323;52.170;7.538;2024-02-21T04:09:33;597.75;;;320.60;;
56419;SDS011;42323;52.170;7.538;2024-02-21T04:12:00;590.08;;;315.90;;
56419;SDS011;42323;52.170;7.538;2024-02-21T04:14:27;593.75;;;318.08;;
56419;SDS011;42323;52.170;7.538;2024-02-21T04:16:53;593.28;;;317.63;;
56419;SDS011;42323;52.170;7.538;2024-02-21T04:19:20;590.17;;;316.98;;
56419;SDS011;42323;52.170;7.538;2024-02-21T04:21:46;610.05;;;313.67;;
56419;SDS011;42323;52.170;7.538;2024-02-21T04:24:13;570.53;;;304.40;;
56419;SDS011;42323;52.170;7.538;2024-02-21T04:26:39;579.28;;;307.00;;
56419;SDS011;42323;52.170;7.538;2024-02-21T04:29:06;607.47;;;311.63;;
56419;SDS011;42323;52.170;7.538;2024-02-21T04:31:33;606.88;;;310.83;;
56419;SDS011;42323;52.170;7.538;2024-02-21T04:34:00;579.63;;;309.45;;
56419;SDS011;42323;52.170;7.538;2024-02-21T04:36:27;575.15;;;306.50;;
56419;SDS011;42323;52.170;7.538;2024-02-21T04:38:53;586.83;;;312.85;;
56419;SDS011;42323;52.170;7.538;2024-02-21T04:41:19;609.70;;;313.58;;
56419;SDS011;42323;52.170;7.538;2024-02-21T04:43:46;580.05;;;306.58;;
56419;SDS011;42323;52.170;7.538;2024-02-21T04:46:14;607.95;;;314.15;;
56419;SDS011;42323;52.170;7.538;2024-02-21T04:48:41;566.50;;;301.25;;
56419;SDS011;42323;52.170;7.538;2024-02-21T04:51:08;593.80;;;303.85;;
56419;SDS011;42323;52.170;7.538;2024-02-21T04:53:34;565.75;;;300.00;;
56419;SDS011;42323;52.170;7.538;2024-02-21T04:56:01;591.63;;;300.17;;
56419;SDS011;42323;52.170;7.538;2024-02-21T04:58:27;565.78;;;300.17;;
56419;SDS011;42323;52.170;7.538;2024-02-21T05:00:54;570.00;;;302.05;;
56419;SDS011;42323;52.170;7.538;2024-02-21T05:03:21;560.53;;;297.35;;
56419;SDS011;42323;52.170;7.538;2024-02-21T05:05:48;566.92;;;297.55;;
56419;SDS011;42323;52.170;7.538;2024-02-21T05:08:15;561.00;;;296.92;;
56419;SDS011;42323;52.170;7.538;2024-02-21T05:10:41;589.42;;;301.50;;
56419;SDS011;42323;52.170;7.538;2024-02-21T05:13:08;562.65;;;297.20;;
56419;SDS011;42323;52.170;7.538;2024-02-21T05:15:35;558.65;;;295.88;;
56419;SDS011;42323;52.170;7.538;2024-02-21T05:18:01;556.72;;;297.38;;
56419;SDS011;42323;52.170;7.538;2024-02-21T05:20:28;558.22;;;296.05;;
56419;SDS011;42323;52.170;7.538;2024-02-21T05:22:55;559.70;;;296.67;;
56419;SDS011;42323;52.170;7.538;2024-02-21T05:25:21;558.75;;;294.92;;
56419;SDS011;42323;52.170;7.538;2024-02-21T05:27:48;562.42;;;297.13;;
56419;SDS011;42323;52.170;7.538;2024-02-21T05:30:18;559.13;;;297.35;;
56419;SDS011;42323;52.170;7.538;2024-02-21T05:32:44;581.60;;;297.73;;
56419;SDS011;42323;52.170;7.538;2024-02-21T05:35:11;576.63;;;294.98;;
56419;SDS011;42323;52.170;7.538;2024-02-21T05:37:37;579.92;;;297.38;;
56419;SDS011;42323;52.170;7.538;2024-02-21T05:40:05;559.80;;;293.60;;
56419;SDS011;42323;52.170;7.538;2024-02-21T05:42:31;559.55;;;296.58;;
56419;SDS011;42323;52.170;7.538;2024-02-21T05:44:58;554.38;;;290.63;;
56419;SDS011;42323;52.170;7.538;2024-02-21T05:47:25;586.22;;;298.85;;
56419;SDS011;42323;52.170;7.538;2024-02-21T05:49:51;562.15;;;297.65;;
56419;SDS011;42323;52.170;7.538;2024-02-21T05:52:20;561.45;;;296.63;;
56419;SDS011;42323;52.170;7.538;2024-02-21T05:54:47;564.15;;;297.63;;
56419;SDS011;42323;52.170;7.538;2024-02-21T05:57:19;580.17;;;296.38;;
56419;SDS011;42323;52.170;7.538;2024-02-21T05:59:46;585.90;;;300.58;;
56419;SDS011;42323;52.170;7.538;2024-02-21T06:02:12;564.45;;;295.48;;
56419;SDS011;42323;52.170;7.538;2024-02-21T06:04:39;559.47;;;295.02;;
56419;SDS011;42323;52.170;7.538;2024-02-21T06:07:06;556.63;;;292.60;;
56419;SDS011;42323;52.170;7.538;2024-02-21T06:09:33;558.28;;;295.42;;
56419;SDS011;42323;52.170;7.538;2024-02-21T06:11:59;558.70;;;294.15;;
56419;SDS011;42323;52.170;7.538;2024-02-21T06:14:25;564.45;;;296.70;;
56419;SDS011;42323;52.170;7.538;2024-02-21T06:16:52;561.10;;;294.85;;
56419;SDS011;42323;52.170;7.538;2024-02-21T06:19:18;558.70;;;293.15;;
56419;SDS011;42323;52.170;7.538;2024-02-21T06:21:45;558.30;;;293.65;;
56419;SDS011;42323;52.170;7.538;2024-02-21T06:24:11;583.38;;;296.13;;
56419;SDS011;42323;52.170;7.538;2024-02-21T06:26:39;557.47;;;293.30;;
56419;SDS011;42323;52.170;7.538;2024-02-21T06:29:06;557.95;;;292.38;;
56419;SDS011;42323;52.170;7.538;2024-02-21T06:31:33;551.42;;;290.15;;
56419;SDS011;42323;52.170;7.538;2024-02-21T06:34:00;554.28;;;291.40;;
56419;SDS011;42323;52.170;7.538;2024-02-21T06:36:26;556.90;;;293.38;;
56419;SDS011;42323;52.170;7.538;2024-02-21T06:38:53;560.13;;;296.73;;
56419;SDS011;42323;52.170;7.538;2024-02-21T06:41:19;560.55;;;296.27;;
56419;SDS011;42323;52.170;7.538;2024-02-21T06:43:46;567.67;;;295.30;;
56419;SDS011;42323;52.170;7.538;2024-02-21T06:46:26;581.97;;;294.80;;
56419;SDS011;42323;52.170;7.538;2024-02-21T06:48:54;559.13;;;295.42;;
56419;SDS011;42323;52.170;7.538;2024-02-21T06:51:23;551.97;;;292.15;;
56419;SDS011;42323;52.170;7.538;2024-02-21T06:53:51;555.63;;;292.13;;
56419;SDS011;42323;52.170;7.538;2024-02-21T06:56:17;561.70;;;294.60;;
56419;SDS011;42323;52.170;7.538;2024-02-21T06:58:44;549.35;;;288.23;;
56419;SDS011;42323;52.170;7.538;2024-02-21T07:01:11;551.00;;;291.98;;
56419;SDS011;42323;52.170;7.538;2024-02-21T07:03:37;553.33;;;292.92;;
56419;SDS011;42323;52.170;7.538;2024-02-21T07:06:04;558.70;;;293.13;;
56419;SDS011;42323;52.170;7.538;2024-02-21T07:08:31;553.67;;;291.05;;
56419;SDS011;42323;52.170;7.538;2024-02-21T07:10:57;558.42;;;292.23;;
56419;SDS011;42323;52.170;7.538;2024-02-21T07:13:24;557.28;;;292.60;;
56419;SDS011;42323;52.170;7.538;2024-02-21T07:15:50;581.13;;;294.50;;
56419;SDS011;42323;52.170;7.538;2024-02-21T07:18:17;580.58;;;294.40;;
56419;SDS011;42323;52.170;7.538;2024-02-21T07:20:43;566.90;;;297.08;;
56419;SDS011;42323;52.170;7.538;2024-02-21T07:23:10;561.53;;;295.27;;
56419;SDS011;42323;52.170;7.538;2024-02-21T07:25:36;560.08;;;293.60;;
56419;SDS011;42323;52.170;7.538;2024-02-21T07:28:03;583.95;;;294.90;;
56419;SDS011;42323;52.170;7.538;2024-02-21T07:30:29;555.92;;;289.45;;
56419;SDS011;42323;52.170;7.538;2024-02-21T07:32:56;561.25;;;295.30;;
56419;SDS011;42323;52.170;7.538;2024-02-21T07:35:22;585.55;;;296.02;;
56419;SDS011;42323;52.170;7.538;2024-02-21T07:37:49;561.10;;;293.25;;
56419;SDS011;42323;52.170;7.538;2024-02-21T07:40:16;565.22;;;295.20;;
56419;SDS011;42323;52.170;7.538;2024-02-21T07:42:43;588.03;;;297.20;;
56419;SDS011;42323;52.170;7.538;2024-02-21T07:45:13;561.33;;;295.08;;
56419;SDS011;42323;52.170;7.538;2024-02-21T07:47:40;563.33;;;293.88;;
56419;SDS011;42323;52.170;7.538;2024-02-21T07:50:07;566.78;;;294.63;;
56419;SDS011;42323;52.170;7.538;2024-02-21T07:52:33;585.67;;;296.27;;
56419;SDS011;42323;52.170;7.538;2024-02-21T07:55:00;566.88;;;295.55;;
56419;SDS011;42323;52.170;7.538;2024-02-21T07:57:26;588.85;;;298.30;;
56419;SDS011;42323;52.170;7.538;2024-02-21T07:59:53;565.90;;;295.55;;
56419;SDS011;42323;52.170;7.538;2024-02-21T08:02:20;568.10;;;294.95;;
56419;SDS011;42323;52.170;7.538;2024-02-21T08:04:49;570.28;;;298.33;;
56419;SDS011;42323;52.170;7.538;2024-02-21T08:07:16;569.38;;;297.00;;
56419;SDS011;42323;52.170;7.538;2024-02-21T08:09:42;591.10;;;295.70;;
56419;SDS011;42323;52.170;7.538;2024-02-21T08:12:08;562.65;;;292.13;;
56419;SDS011;42323;52.170;7.538;2024-02-21T08:14:35;573.33;;;296.58;;
56419;SDS011;42323;52.170;7.538;2024-02-21T08:17:03;574.42;;;296.58;;
56419;SDS011;42323;52.170;7.538;2024-02-21T08:19:30;598.15;;;298.98;;
56419;SDS011;42323;52.170;7.538;2024-02-21T08:21:56;599.95;;;299.33;;
56419;SDS011;42323;52.170;7.538;2024-02-21T08:24:23;596.28;;;296.38;;
56419;SDS011;42323;52.170;7.538;2024-02-21T08:26:49;572.75;;;295.88;;
56419;SDS011;42323;52.170;7.538;2024-02-21T08:29:16;578.72;;;297.00;;
56419;SDS011;42323;52.170;7.538;2024-02-21T08:31:42;579.40;;;298.65;;
56419;SDS011;42323;52.170;7.538;2024-02-21T08:34:09;596.58;;;297.70;;
56419;SDS011;42323;52.170;7.538;2024-02-21T08:36:35;573.47;;;294.27;;
56419;SDS011;42323;52.170;7.538;2024-02-21T08:39:02;598.53;;;298.90;;
56419;SDS011;42323;52.170;7.538;2024-02-21T08:41:32;599.17;;;297.88;;
56419;SDS011;42323;52.170;7.538;2024-02-21T08:44:19;598.72;;;297.52;;
56419;SDS011;42323;52.170;7.538;2024-02-21T08:46:45;578.20;;;296.85;;
56419;SDS011;42323;52.170;7.538;2024-02-21T08:49:13;585.40;;;299.48;;
56419;SDS011;42323;52.170;7.538;2024-02-21T08:51:40;583.95;;;297.95;;
56419;SDS011;42323;52.170;7.538;2024-02-21T08:54:07;582.00;;;295.95;;
56419;SDS011;42323;52.170;7.538;2024-02-21T08:56:34;585.60;;;297.83;;
56419;SDS011;42323;52.170;7.538;2024-02-21T08:59:01;582.67;;;295.70;;
56419;SDS011;42323;52.170;7.538;2024-02-21T09:01:28;611.33;;;300.45;;
56419;SDS011;42323;52.170;7.538;2024-02-21T09:03:55;612.58;;;301.50;;
56419;SDS011;42323;52.170;7.538;2024-02-21T09:06:23;587.45;;;298.40;;
56419;SDS011;42323;52.170;7.538;2024-02-21T09:08:49;593.25;;;300.88;;
56419;SDS011;42323;52.170;7.538;2024-02-21T09:11:15;591.78;;;298.67;;
56419;SDS011;42323;52.170;7.538;2024-02-21T09:13:42;608.20;;;297.98;;
56419;SDS011;42323;52.170;7.538;2024-02-21T09:16:09;587.60;;;296.05;;
56419;SDS011;42323;52.170;7.538;2024-02-21T09:18:35;611.88;;;298.50;;
56419;SDS011;42323;52.170;7.538;2024-02-21T09:21:02;593.60;;;298.77;;
56419;SDS011;42323;52.170;7.538;2024-02-21T09:23:29;599.80;;;300.73;;
56419;SDS011;42323;52.170;7.538;2024-02-21T09:25:55;597.78;;;299.25;;
56419;SDS011;42323;52.170;7.538;2024-02-21T09:28:22;603.08;;;301.95;;
56419;SDS011;42323;52.170;7.538;2024-02-21T09:30:49;619.80;;;302.13;;
56419;SDS011;42323;52.170;7.538;2024-02-21T09:33:15;603.30;;;300.45;;
56419;SDS011;42323;52.170;7.538;2024-02-21T09:35:57;604.20;;;301.63;;
56419;SDS011;42323;52.170;7.538;2024-02-21T09:38:23;622.22;;;303.38;;
56419;SDS011;42323;52.170;7.538;2024-02-21T09:41:00;626.03;;;304.17;;
56419;SDS011;42323;52.170;7.538;2024-02-21T09:43:30;603.00;;;302.55;;
56419;SDS011;42323;52.170;7.538;2024-02-21T09:45:57;597.35;;;300.10;;
56419;SDS011;42323;52.170;7.538;2024-02-21T09:50:56;598.55;;;300.23;;
56419;SDS011;42323;52.170;7.538;2024-02-21T09:53:24;621.58;;;302.48;;
56419;SDS011;42323;52.170;7.538;2024-02-21T09:55:50;604.10;;;302.77;;
56419;SDS011;42323;52.170;7.538;2024-02-21T09:58:18;621.53;;;301.90;;
56419;SDS011;42323;52.170;7.538;2024-02-21T10:00:44;625.65;;;304.23;;
56419;SDS011;42323;52.170;7.538;2024-02-21T10:03:11;598.97;;;300.95;;
56419;SDS011;42323;52.170;7.538;2024-02-21T10:05:37;599.85;;;300.13;;
56419;SDS011;42323;52.170;7.538;2024-02-21T10:08:04;606.25;;;303.10;;
56419;SDS011;42323;52.170;7.538;2024-02-21T10:10:43;605.72;;;304.33;;
56419;SDS011;42323;52.170;7.538;2024-02-21T10:13:10;601.50;;;302.92;;
56419;SDS011;42323;52.170;7.538;2024-02-21T10:15:37;624.50;;;303.70;;
56419;SDS011;42323;52.170;7.538;2024-02-21T10:18:04;606.58;;;303.75;;
56419;SDS011;42323;52.170;7.538;2024-02-21T10:20:31;603.88;;;303.05;;
56419;SDS011;42323;52.170;7.538;2024-02-21T10:23:01;605.60;;;302.98;;
56419;SDS011;42323;52.170;7.538;2024-02-21T10:25:28;609.03;;;306.52;;
56419;SDS011;42323;52.170;7.538;2024-02-21T10:27:57;600.92;;;301.75;;
56419;SDS011;42323;52.170;7.538;2024-02-21T10:30:23;623.40;;;303.25;;
56419;SDS011;42323;52.170;7.538;2024-02-21T10:32:53;604.22;;;301.27;;
56419;SDS011;42323;52.170;7.538;2024-02-21T10:35:26;607.28;;;303.38;;
56419;SDS011;42323;52.170;7.538;2024-02-21T10:37:55;602.25;;;302.95;;
56419;SDS011;42323;52.170;7.538;2024-02-21T10:40:26;608.28;;;304.73;;
56419;SDS011;42323;52.170;7.538;2024-02-21T10:42:56;603.38;;;303.52;;
56419;SDS011;42323;52.170;7.538;2024-02-21T10:45:23;601.78;;;301.00;;
56419;SDS011;42323;52.170;7.538;2024-02-21T10:47:52;609.53;;;304.58;;
56419;SDS011;42323;52.170;7.538;2024-02-21T10:50:22;607.17;;;303.95;;
56419;SDS011;42323;52.170;7.538;2024-02-21T10:52:53;607.05;;;303.27;;
56419;SDS011;42323;52.170;7.538;2024-02-21T10:55:33;632.20;;;306.33;;
56419;SDS011;42323;52.170;7.538;2024-02-21T10:58:01;611.50;;;306.40;;
56419;SDS011;42323;52.170;7.538;2024-02-21T11:00:28;605.20;;;301.52;;
56419;SDS011;42323;52.170;7.538;2024-02-21T11:02:57;612.03;;;303.77;;
56419;SDS011;42323;52.170;7.538;2024-02-21T11:05:24;630.33;;;302.88;;
56419;SDS011;42323;52.170;7.538;2024-02-21T11:07:50;611.03;;;304.23;;
56419;SDS011;42323;52.170;7.538;2024-02-21T11:10:24;614.25;;;306.08;;
56419;SDS011;42323;52.170;7.538;2024-02-21T11:13:07;613.55;;;304.77;;
56419;SDS011;42323;52.170;7.538;2024-02-21T11:15:34;632.42;;;306.30;;
56419;SDS011;42323;52.170;7.538;2024-02-21T11:18:00;614.92;;;306.85;;
56419;SDS011;42323;52.170;7.538;2024-02-21T11:20:37;612.20;;;305.48;;
56419;SDS011;42323;52.170;7.538;2024-02-21T11:23:04;616.83;;;306.73;;
56419;SDS011;42323;52.170;7.538;2024-02-21T11:25:32;615.25;;;308.02;;
56419;SDS011;42323;52.170;7.538;2024-02-21T11:28:01;610.40;;;305.95;;
56419;SDS011;42323;52.170;7.538;2024-02-21T11:30:29;609.05;;;305.60;;
56419;SDS011;42323;52.170;7.538;2024-02-21T11:36:24;613.80;;;306.60;;
56419;SDS011;42323;52.170;7.538;2024-02-21T11:38:51;610.05;;;306.00;;
56419;SDS011;42323;52.170;7.538;2024-02-21T11:41:18;607.42;;;303.10;;
56419;SDS011;42323;52.170;7.538;2024-02-21T11:43:45;597.40;;;299.85;;
56419;SDS011;42323;52.170;7.538;2024-02-21T11:46:11;607.58;;;297.20;;
56419;SDS011;42323;52.170;7.538;2024-02-21T11:48:39;602.38;;;301.98;;
56419;SDS011;42323;52.170;7.538;2024-02-21T11:51:06;587.63;;;296.00;;
56419;SDS011;42323;52.170;7.538;2024-02-21T11:53:33;593.88;;;298.63;;
56419;SDS011;42323;52.170;7.538;2024-02-21T11:56:06;595.80;;;301.25;;
56419;SDS011;42323;52.170;7.538;2024-02-21T11:58:35;619.47;;;303.83;;
56419;SDS011;42323;52.170;7.538;2024-02-21T12:01:02;596.50;;;301.88;;
56419;SDS011;42323;52.170;7.538;2024-02-21T12:03:30;600.25;;;302.63;;
56419;SDS011;42323;52.170;7.538;2024-02-21T12:05:57;601.30;;;303.90;;
56419;SDS011;42323;52.170;7.538;2024-02-21T12:08:25;605.58;;;305.95;;
56419;SDS011;42323;52.170;7.538;2024-02-21T12:10:51;601.58;;;304.30;;
56419;SDS011;42323;52.170;7.538;2024-02-21T12:13:18;597.53;;;302.50;;
56419;SDS011;42323;52.170;7.538;2024-02-21T12:15:48;598.72;;;302.45;;
56419;SDS011;42323;52.170;7.538;2024-02-21T12:18:15;614.33;;;300.65;;
56419;SDS011;42323;52.170;7.538;2024-02-21T12:20:42;591.83;;;300.17;;
56419;SDS011;42323;52.170;7.538;2024-02-21T12:23:09;589.70;;;299.30;;
56419;SDS011;42323;52.170;7.538;2024-02-21T12:25:36;594.78;;;302.10;;
56419;SDS011;42323;52.170;7.538;2024-02-21T12:28:03;592.55;;;301.77;;
56419;SDS011;42323;52.170;7.538;2024-02-21T12:30:30;593.97;;;302.65;;
56419;SDS011;42323;52.170;7.538;2024-02-21T12:32:59;614.75;;;302.15;;
56419;SDS011;42323;52.170;7.538;2024-02-21T12:35:27;594.10;;;303.42;;
56419;SDS011;42323;52.170;7.538;2024-02-21T12:37:54;600.20;;;303.92;;
56419;SDS011;42323;52.170;7.538;2024-02-21T12:40:20;622.72;;;306.65;;
56419;SDS011;42323;52.170;7.538;2024-02-21T12:42:47;602.40;;;304.42;;
56419;SDS011;42323;52.170;7.538;2024-02-21T12:45:14;603.65;;;305.88;;
56419;SDS011;42323;52.170;7.538;2024-02-21T12:47:42;607.35;;;306.17;;
56419;SDS011;42323;52.170;7.538;2024-02-21T12:50:08;605.60;;;304.83;;
56419;SDS011;42323;52.170;7.538;2024-02-21T12:52:35;605.40;;;304.98;;
56419;SDS011;42323;52.170;7.538;2024-02-21T12:55:02;606.63;;;304.85;;
56419;SDS011;42323;52.170;7.538;2024-02-21T12:57:29;604.00;;;303.80;;
56419;SDS011;42323;52.170;7.538;2024-02-21T12:59:55;628.75;;;304.80;;
56419;SDS011;42323;52.170;7.538;2024-02-21T13:02:21;607.33;;;304.63;;
56419;SDS011;42323;52.170;7.538;2024-02-21T13:04:48;630.08;;;304.52;;
56419;SDS011;42323;52.170;7.538;2024-02-21T13:07:15;616.03;;;304.75;;
56419;SDS011;42323;52.170;7.538;2024-02-21T13:09:41;612.42;;;303.90;;
56419;SDS011;42323;52.170;7.538;2024-02-21T13:12:08;641.33;;;308.55;;
56419;SDS011;42323;52.170;7.538;2024-02-21T13:14:34;641.50;;;307.90;;
56419;SDS011;42323;52.170;7.538;2024-02-21T13:17:05;612.00;;;305.65;;
56419;SDS011;42323;52.170;7.538;2024-02-21T13:19:32;610.17;;;304.02;;
56419;SDS011;42323;52.170;7.538;2024-02-21T13:21:58;613.30;;;302.50;;
56419;SDS011;42323;52.170;7.538;2024-02-21T13:24:25;608.53;;;301.58;;
56419;SDS011;42323;52.170;7.538;2024-02-21T13:26:51;613.97;;;304.67;;
56419;SDS011;42323;52.170;7.538;2024-02-21T13:29:18;613.80;;;305.45;;
56419;SDS011;42323;52.170;7.538;2024-02-21T13:31:44;629.22;;;303.77;;
56419;SDS011;42323;52.170;7.538;2024-02-21T13:34:11;624.65;;;302.48;;
56419;SDS011;42323;52.170;7.538;2024-02-21T13:36:38;627.90;;;304.60;;
56419;SDS011;42323;52.170;7.538;2024-02-21T13:39:04;629.63;;;305.65;;
56419;SDS011;42323;52.170;7.538;2024-02-21T13:41:31;604.08;;;303.13;;
56419;SDS011;42323;52.170;7.538;2024-02-21T13:43:58;608.15;;;303.92;;
56419;SDS011;42323;52.170;7.538;2024-02-21T13:46:26;607.70;;;305.45;;
56419;SDS011;42323;52.170;7.538;2024-02-21T13:48:54;630.85;;;305.23;;
56419;SDS011;42323;52.170;7.538;2024-02-21T13:51:27;629.47;;;305.58;;
56419;SDS011;42323;52.170;7.538;2024-02-21T13:53:57;632.63;;;305.70;;
56419;SDS011;42323;52.170;7.538;2024-02-21T13:56:23;445.55;;;212.10;;
56419;SDS011;42323;52.170;7.538;2024-02-21T13:58:49;434.02;;;204.63;;
56419;SDS011;42323;52.170;7.538;2024-02-21T14:01:16;427.90;;;201.30;;